Time;durP1;ratioP1;P1;durP2;ratioP2;P2;SDS_P1;SDS_P2;PMS_P1;PMS_P2;Temp;Humidity;BMP_temperature;BMP_pressure;BME280_temperature;BME280_humidity;BME280_pressure;Samples;Min_cycle;Max_cycle;Signal;HPM_P1;HPM_P2
2021/08/18 00:00:57;;;;;;;8.40;5.50;;;14.40;99.90;;;;;;6161247;23;20246;-89
2021/08/18 00:03:23;;;;;;;9.15;4.90;;;14.40;99.90;;;;;;6135606;23;20009;-88
2021/08/18 00:05:49;;;;;;;10.88;5.50;;;14.30;99.90;;;;;;6160845;23;20469;-88
2021/08/18 00:08:15;;;;;;;7.65;4.88;;;14.30;99.90;;;;;;6136574;23;20349;-88
2021/08/18 00:10:42;;;;;;;7.38;5.07;;;14.30;99.90;;;;;;6111271;23;20020;-89
2021/08/18 00:13:10;;;;;;;10.40;5.35;;;14.20;99.90;;;;;;6136329;23;20268;-88
2021/08/18 00:15:38;;;;;;;9.27;5.30;;;14.20;99.90;;;;;;6185575;23;20040;-91
2021/08/18 00:18:05;;;;;;;7.88;5.13;;;14.10;99.90;;;;;;6159999;23;20009;-90
2021/08/18 00:20:32;;;;;;;8.02;5.50;;;14.10;99.90;;;;;;6161479;23;20008;-91
2021/08/18 00:22:58;;;;;;;11.15;5.57;;;14.10;99.90;;;;;;6111597;23;20016;-88
2021/08/18 00:25:26;;;;;;;9.00;5.45;;;14.00;99.90;;;;;;6184974;23;20339;-89
2021/08/18 00:27:53;;;;;;;9.15;5.15;;;14.00;99.90;;;;;;6135463;23;20450;-88
2021/08/18 00:30:19;;;;;;;8.02;5.07;;;14.00;99.90;;;;;;6136357;23;20014;-88
2021/08/18 00:32:45;;;;;;;11.68;5.35;;;14.00;99.90;;;;;;6135803;23;20100;-88
2021/08/18 00:35:11;;;;;;;10.00;5.15;;;13.90;99.90;;;;;;6160136;23;20071;-88
2021/08/18 00:37:37;;;;;;;10.00;5.80;;;13.90;99.90;;;;;;6135463;23;20776;-88
2021/08/18 00:40:04;;;;;;;8.23;5.28;;;13.90;99.90;;;;;;6159489;23;20013;-88
2021/08/18 00:42:31;;;;;;;11.48;5.95;;;13.90;99.90;;;;;;6134601;23;20095;-90
2021/08/18 00:44:57;;;;;;;9.80;5.43;;;13.90;99.90;;;;;;6189118;23;20072;-91
2021/08/18 00:47:22;;;;;;;14.48;5.88;;;13.90;99.90;;;;;;6154378;23;20017;-89
2021/08/18 00:49:48;;;;;;;10.57;5.53;;;13.90;99.90;;;;;;6165716;23;20092;-89
2021/08/18 00:52:14;;;;;;;12.77;5.93;;;13.90;99.90;;;;;;6159132;23;20451;-91
2021/08/18 00:54:41;;;;;;;13.75;6.65;;;14.00;99.90;;;;;;6136211;23;20021;-89
2021/08/18 00:57:09;;;;;;;15.05;6.97;;;14.00;99.90;;;;;;6112320;23;20013;-90
2021/08/18 00:59:36;;;;;;;12.63;6.95;;;14.00;99.90;;;;;;6135270;23;20095;-89
2021/08/18 01:02:02;;;;;;;18.13;6.95;;;14.00;99.90;;;;;;6135357;23;20012;-89
2021/08/18 01:04:28;;;;;;;15.75;6.43;;;14.00;99.90;;;;;;6159665;23;20017;-88
2021/08/18 01:06:54;;;;;;;14.52;6.03;;;14.00;99.90;;;;;;6109839;23;20444;-91
2021/08/18 01:09:21;;;;;;;13.00;6.18;;;14.10;99.90;;;;;;6134850;23;20016;-90
2021/08/18 01:11:50;;;;;;;11.48;6.32;;;14.10;99.90;;;;;;6184557;23;20016;-91
2021/08/18 01:14:17;;;;;;;11.95;6.57;;;14.10;99.90;;;;;;6184975;23;20013;-89
2021/08/18 01:16:49;;;;;;;13.68;6.13;;;14.10;99.90;;;;;;6159905;23;20016;-90
2021/08/18 01:19:18;;;;;;;15.18;6.13;;;14.10;99.90;;;;;;6160299;23;20017;-90
2021/08/18 01:21:47;;;;;;;11.27;6.35;;;14.20;99.90;;;;;;6158172;23;20014;-89
2021/08/18 01:24:14;;;;;;;11.45;6.47;;;14.20;99.90;;;;;;6185178;23;20013;-89
2021/08/18 01:26:41;;;;;;;12.63;6.78;;;14.20;99.90;;;;;;6159160;23;20464;-90
2021/08/18 01:29:07;;;;;;;15.25;7.05;;;14.20;99.90;;;;;;6159778;23;20035;-89
2021/08/18 01:31:35;;;;;;;11.88;6.05;;;14.20;99.90;;;;;;6184240;23;20017;-89
2021/08/18 01:34:03;;;;;;;11.02;5.88;;;14.20;99.90;;;;;;6135371;23;20016;-89
2021/08/18 01:36:31;;;;;;;12.20;6.28;;;14.20;99.90;;;;;;6159038;23;20017;-90
2021/08/18 01:39:06;;;;;;;12.88;6.63;;;14.20;99.90;;;;;;6158740;23;20016;-89
2021/08/18 01:41:32;;;;;;;10.77;6.13;;;14.20;99.90;;;;;;6178623;23;20078;-91
2021/08/18 01:43:58;;;;;;;12.82;6.40;;;14.20;99.90;;;;;;6159231;23;20023;-89
2021/08/18 01:46:24;;;;;;;13.27;6.38;;;14.20;99.90;;;;;;6157982;23;20123;-89
2021/08/18 01:48:51;;;;;;;14.32;6.45;;;14.20;99.90;;;;;;6183740;23;20025;-88
2021/08/18 01:51:20;;;;;;;15.10;6.75;;;14.30;99.90;;;;;;6158714;23;20071;-90
2021/08/18 01:53:47;;;;;;;11.77;6.18;;;14.30;99.90;;;;;;6135350;23;20023;-88
2021/08/18 01:56:21;;;;;;;13.85;6.13;;;14.30;99.90;;;;;;6159598;23;20332;-88
2021/08/18 01:58:49;;;;;;;10.57;6.03;;;14.30;99.90;;;;;;6159152;23;20020;-89
2021/08/18 02:01:16;;;;;;;9.30;5.82;;;14.30;99.90;;;;;;6183663;23;20012;-91
2021/08/18 02:03:42;;;;;;;12.93;6.35;;;14.30;99.90;;;;;;6158369;23;20009;-90
2021/08/18 02:06:09;;;;;;;12.77;6.80;;;14.20;99.90;;;;;;6185163;23;20017;-89
2021/08/18 02:08:35;;;;;;;12.10;6.30;;;14.20;99.90;;;;;;6160043;23;20480;-89
2021/08/18 02:11:01;;;;;;;13.13;6.10;;;14.20;99.90;;;;;;6160586;23;20013;-91
2021/08/18 02:13:27;;;;;;;12.13;5.90;;;14.20;99.90;;;;;;6184903;23;20021;-89
2021/08/18 02:15:54;;;;;;;11.65;5.50;;;14.10;99.90;;;;;;6159128;23;20438;-89
2021/08/18 02:35:39;;;;;;;9.32;6.15;;;13.90;99.90;;;;;;6272062;22;20031;-81
2021/08/18 02:38:06;;;;;;;11.80;6.82;;;13.90;99.90;;;;;;6229845;22;20016;-84
2021/08/18 02:40:33;;;;;;;14.68;7.07;;;13.90;99.90;;;;;;6219020;22;20031;-82
2021/08/18 02:42:59;;;;;;;12.18;6.82;;;13.90;99.90;;;;;;6245417;22;20384;-83
2021/08/18 02:45:27;;;;;;;14.80;6.63;;;13.90;99.90;;;;;;6244730;22;20019;-83
2021/08/18 02:47:53;;;;;;;12.57;6.38;;;13.90;99.90;;;;;;6196517;22;20127;-83
2021/08/18 02:50:22;;;;;;;15.35;6.63;;;14.00;99.90;;;;;;6246071;22;20091;-83
2021/08/18 02:52:48;;;;;;;14.80;7.47;;;14.00;99.90;;;;;;6245800;22;20012;-84
2021/08/18 02:55:14;;;;;;;12.13;6.63;;;14.00;99.90;;;;;;6246175;22;20086;-83
2021/08/18 02:57:41;;;;;;;15.95;6.70;;;14.00;99.90;;;;;;6220510;22;20667;-84
2021/08/18 03:00:08;;;;;;;15.70;6.20;;;14.00;99.90;;;;;;6221404;22;20389;-84
2021/08/18 03:02:34;;;;;;;12.73;6.82;;;14.10;99.90;;;;;;6246919;22;20012;-83
2021/08/18 03:05:00;;;;;;;17.17;7.00;;;14.10;99.90;;;;;;6272800;22;20018;-84
2021/08/18 03:07:26;;;;;;;15.40;7.43;;;14.10;99.90;;;;;;6247573;22;20012;-83
2021/08/18 03:09:52;;;;;;;17.85;6.97;;;14.10;99.90;;;;;;6197497;22;20012;-83
2021/08/18 03:12:18;;;;;;;11.68;6.53;;;14.20;99.90;;;;;;6245491;22;20012;-83
2021/08/18 03:14:44;;;;;;;15.95;7.18;;;14.20;99.90;;;;;;6220082;22;20016;-84
2021/08/18 03:17:10;;;;;;;13.48;6.40;;;14.20;99.90;;;;;;6219065;22;20014;-84
2021/08/18 03:19:36;;;;;;;13.48;6.85;;;14.20;99.90;;;;;;6220500;22;20012;-82
2021/08/18 03:22:02;;;;;;;13.90;6.18;;;14.20;99.90;;;;;;6195531;22;20309;-83
2021/08/18 03:24:28;;;;;;;14.00;6.43;;;14.20;99.90;;;;;;6245123;22;20019;-84
2021/08/18 03:26:54;;;;;;;13.25;6.05;;;14.20;99.90;;;;;;6194769;22;20008;-83
2021/08/18 03:29:20;;;;;;;10.65;6.45;;;14.30;99.90;;;;;;6219589;22;20035;-83
2021/08/18 03:31:46;;;;;;;11.90;6.35;;;14.30;99.90;;;;;;6195200;22;20011;-83
2021/08/18 03:34:12;;;;;;;13.60;6.68;;;14.20;99.90;;;;;;6244911;22;20015;-83
2021/08/18 03:36:38;;;;;;;13.25;7.05;;;14.30;99.90;;;;;;6246578;22;20015;-83
2021/08/18 03:39:03;;;;;;;13.13;6.57;;;14.30;99.90;;;;;;6219704;22;20008;-83
2021/08/18 03:41:29;;;;;;;14.95;6.80;;;14.30;99.90;;;;;;6219968;22;20008;-84
2021/08/18 03:43:55;;;;;;;12.32;6.88;;;14.30;99.90;;;;;;6223415;22;20065;-83
2021/08/18 03:46:21;;;;;;;12.20;6.78;;;14.30;99.90;;;;;;6220660;22;20012;-83
2021/08/18 03:48:47;;;;;;;16.33;6.93;;;14.30;99.90;;;;;;6220203;22;20090;-83
2021/08/18 03:51:13;;;;;;;20.45;6.72;;;14.30;99.90;;;;;;6219886;22;20028;-84
2021/08/18 03:53:38;;;;;;;19.05;7.03;;;14.30;99.90;;;;;;6195650;22;20487;-83
2021/08/18 03:56:04;;;;;;;11.02;6.60;;;14.40;99.90;;;;;;6221686;22;20042;-82
2021/08/18 03:58:31;;;;;;;14.90;6.68;;;14.40;99.90;;;;;;6246692;22;20090;-84
2021/08/18 04:00:57;;;;;;;14.43;7.22;;;14.40;99.90;;;;;;6219945;22;20035;-84
2021/08/18 04:03:22;;;;;;;13.82;6.85;;;14.50;99.90;;;;;;6219494;22;20007;-83
2021/08/18 04:05:48;;;;;;;14.43;6.63;;;14.50;99.90;;;;;;6220865;22;20022;-84
2021/08/18 04:08:14;;;;;;;14.27;7.15;;;14.50;99.90;;;;;;6244791;22;20008;-83
2021/08/18 04:10:40;;;;;;;13.20;6.93;;;14.50;99.90;;;;;;6220698;22;20008;-83
2021/08/18 04:13:06;;;;;;;14.38;7.03;;;14.50;99.90;;;;;;6220485;22;20087;-83
2021/08/18 04:15:38;;;;;;;12.85;6.63;;;14.50;99.90;;;;;;6275965;22;20085;-83
2021/08/18 04:18:05;;;;;;;15.25;6.25;;;14.50;99.90;;;;;;6250290;22;20046;-83
2021/08/18 04:20:31;;;;;;;14.73;6.72;;;14.50;99.90;;;;;;6228621;22;20012;-83
2021/08/18 04:22:57;;;;;;;15.85;6.95;;;14.50;99.90;;;;;;6250964;22;20012;-84
2021/08/18 04:25:25;;;;;;;14.55;6.70;;;14.50;99.90;;;;;;6253727;22;20020;-82
2021/08/18 04:27:52;;;;;;;17.77;6.43;;;14.60;99.90;;;;;;6200218;22;20504;-83
2021/08/18 04:30:18;;;;;;;12.10;6.65;;;14.60;99.90;;;;;;6223306;22;20008;-83
2021/08/18 04:32:44;;;;;;;16.77;7.05;;;14.60;99.90;;;;;;6248050;22;20060;-83
2021/08/18 04:35:12;;;;;;;12.38;6.32;;;14.50;99.90;;;;;;6249426;22;20320;-83
2021/08/18 04:37:38;;;;;;;10.52;5.80;;;14.50;99.90;;;;;;6234513;22;20581;-84
2021/08/18 04:40:06;;;;;;;14.32;7.22;;;14.50;99.90;;;;;;6245344;22;20087;-83
2021/08/18 04:42:37;;;;;;;18.67;6.53;;;14.50;99.90;;;;;;6247027;22;20340;-84
2021/08/18 04:45:08;;;;;;;13.48;7.18;;;14.50;99.90;;;;;;6221998;22;20008;-83
2021/08/18 04:47:34;;;;;;;16.67;6.97;;;14.60;99.90;;;;;;6257336;22;20016;-83
2021/08/18 04:50:01;;;;;;;15.00;6.97;;;14.60;99.90;;;;;;6249461;22;20012;-83
2021/08/18 04:52:27;;;;;;;15.18;6.78;;;14.60;99.90;;;;;;6277773;22;20513;-83
2021/08/18 04:54:53;;;;;;;14.48;6.95;;;14.60;99.90;;;;;;6220959;22;20023;-84
2021/08/18 04:57:19;;;;;;;12.57;6.95;;;14.60;99.90;;;;;;6245302;22;20083;-83
2021/08/18 04:59:46;;;;;;;11.13;6.13;;;14.60;99.90;;;;;;6246223;22;20363;-83
2021/08/18 05:02:12;;;;;;;15.90;6.80;;;14.60;99.90;;;;;;6247387;22;20061;-84
2021/08/18 05:04:38;;;;;;;15.32;7.10;;;14.70;99.90;;;;;;6248061;22;20039;-83
2021/08/18 05:07:04;;;;;;;11.50;6.85;;;14.60;99.90;;;;;;6221690;22;20440;-83
2021/08/18 05:09:30;;;;;;;16.13;7.00;;;14.70;99.90;;;;;;6196397;22;20012;-83
2021/08/18 05:11:57;;;;;;;12.65;6.00;;;14.70;99.90;;;;;;6221339;22;20019;-83
2021/08/18 05:14:23;;;;;;;13.45;6.47;;;14.70;99.90;;;;;;6220502;22;20022;-84
2021/08/18 05:16:50;;;;;;;12.93;6.38;;;14.70;99.90;;;;;;6195612;22;20094;-83
2021/08/18 05:19:17;;;;;;;18.10;6.10;;;14.70;99.90;;;;;;6222206;22;20015;-83
2021/08/18 05:21:44;;;;;;;11.15;6.15;;;14.80;99.90;;;;;;6246227;22;20407;-83
2021/08/18 05:24:11;;;;;;;15.32;6.25;;;14.80;99.90;;;;;;6247642;22;20019;-83
2021/08/18 05:26:39;;;;;;;9.60;5.75;;;14.80;99.90;;;;;;6198341;22;20008;-83
2021/08/18 05:29:05;;;;;;;11.32;6.35;;;14.80;99.90;;;;;;6220618;22;20019;-82
2021/08/18 05:31:39;;;;;;;14.52;6.75;;;14.80;99.90;;;;;;6246758;22;20030;-83
2021/08/18 05:34:14;;;;;;;15.52;6.55;;;14.80;99.90;;;;;;6175508;22;20011;-84
2021/08/18 05:36:56;;;;;;;15.80;7.40;;;14.80;99.90;;;;;;6180397;22;20016;-85
2021/08/18 05:39:22;;;;;;;19.08;7.10;;;14.70;99.90;;;;;;6195501;22;20241;-84
2021/08/18 05:41:52;;;;;;;14.25;6.53;;;14.80;99.90;;;;;;6197563;22;20011;-84
2021/08/18 05:44:21;;;;;;;13.65;7.22;;;14.80;99.90;;;;;;6246009;22;20385;-84
2021/08/18 05:46:49;;;;;;;15.52;6.22;;;14.70;99.90;;;;;;6222018;22;20007;-85
2021/08/18 05:49:20;;;;;;;12.32;6.90;;;14.80;99.90;;;;;;6220849;22;20403;-83
2021/08/18 05:51:50;;;;;;;18.65;6.85;;;14.80;99.90;;;;;;6229437;22;20020;-83
2021/08/18 05:54:16;;;;;;;17.55;6.30;;;14.90;99.90;;;;;;6244546;22;20368;-84
2021/08/18 05:56:42;;;;;;;15.43;6.90;;;14.90;99.90;;;;;;6219673;22;20452;-85
2021/08/18 05:59:09;;;;;;;14.70;6.80;;;14.90;99.90;;;;;;6247841;22;20008;-84
2021/08/18 06:01:35;;;;;;;14.25;6.65;;;15.00;99.90;;;;;;6219752;22;20034;-83
2021/08/18 06:04:01;;;;;;;10.60;5.53;;;15.00;99.90;;;;;;6218874;22;20015;-83
2021/08/18 06:06:28;;;;;;;12.70;5.63;;;15.00;99.90;;;;;;6220942;22;20099;-84
2021/08/18 06:08:55;;;;;;;9.52;4.82;;;15.00;99.90;;;;;;6195652;22;20012;-84
2021/08/18 06:11:21;;;;;;;9.98;5.13;;;15.10;99.90;;;;;;6195179;22;20018;-83
2021/08/18 06:13:47;;;;;;;7.68;4.70;;;15.10;99.90;;;;;;6220441;22;20022;-85
2021/08/18 06:16:13;;;;;;;10.90;5.30;;;15.20;99.90;;;;;;6194392;22;20012;-85
2021/08/18 06:18:38;;;;;;;11.05;4.88;;;15.20;99.90;;;;;;6195452;22;20335;-84
2021/08/18 06:21:04;;;;;;;8.15;4.60;;;15.20;99.90;;;;;;6217180;22;20441;-85
2021/08/18 06:23:33;;;;;;;9.15;4.60;;;15.20;99.90;;;;;;6245077;22;20012;-85
2021/08/18 06:25:58;;;;;;;15.52;4.30;;;15.30;99.90;;;;;;6245853;22;20061;-83
2021/08/18 06:28:25;;;;;;;8.77;5.57;;;15.30;99.90;;;;;;6221376;22;20697;-84
2021/08/18 06:30:53;;;;;;;9.90;4.45;;;15.30;99.90;;;;;;6220302;22;20054;-84
2021/08/18 06:33:19;;;;;;;7.45;4.25;;;15.30;99.90;;;;;;6249414;22;20039;-84
2021/08/18 06:35:45;;;;;;;7.95;4.85;;;15.30;99.90;;;;;;6194838;22;20015;-84
2021/08/18 06:38:11;;;;;;;7.20;4.00;;;15.30;99.90;;;;;;6219592;22;20344;-83
2021/08/18 06:40:36;;;;;;;6.45;3.40;;;15.30;99.90;;;;;;6219451;22;20011;-84
2021/08/18 06:43:02;;;;;;;6.18;3.63;;;15.30;99.90;;;;;;6219386;22;20462;-85
2021/08/18 06:45:31;;;;;;;4.18;3.05;;;15.40;99.90;;;;;;6220122;22;20022;-83
2021/08/18 06:47:57;;;;;;;4.78;3.05;;;15.40;99.90;;;;;;6217896;22;20439;-84
2021/08/18 06:50:24;;;;;;;4.50;3.15;;;15.40;99.90;;;;;;6219337;22;20016;-84
2021/08/18 06:52:50;;;;;;;6.47;3.33;;;15.50;99.90;;;;;;6245234;22;20015;-84
2021/08/18 06:55:16;;;;;;;7.65;3.60;;;15.50;99.90;;;;;;6245443;22;20016;-84
2021/08/18 06:57:42;;;;;;;4.30;3.20;;;15.50;99.90;;;;;;6194660;22;20008;-84
2021/08/18 07:00:09;;;;;;;7.28;3.78;;;15.50;99.90;;;;;;6218535;22;20007;-83
2021/08/18 07:02:46;;;;;;;4.57;3.67;;;15.60;99.90;;;;;;6195791;22;20047;-83
2021/08/18 07:05:13;;;;;;;5.43;3.33;;;15.60;99.90;;;;;;6220655;22;20015;-85
2021/08/18 07:07:40;;;;;;;4.90;3.85;;;15.70;99.90;;;;;;6249290;22;20091;-85
2021/08/18 07:10:06;;;;;;;7.68;3.30;;;15.70;99.90;;;;;;6196456;22;20018;-83
2021/08/18 07:12:32;;;;;;;6.63;3.47;;;15.70;99.90;;;;;;6221029;22;20098;-84
2021/08/18 07:14:58;;;;;;;6.35;3.53;;;15.80;99.90;;;;;;6219142;22;20042;-82
2021/08/18 07:17:24;;;;;;;6.95;3.40;;;15.80;99.90;;;;;;6219850;22;20018;-84
2021/08/18 07:19:50;;;;;;;8.25;3.90;;;15.80;99.90;;;;;;6219754;22;20012;-84
2021/08/18 07:22:15;;;;;;;7.97;3.67;;;15.90;99.90;;;;;;6195285;22;20007;-84
2021/08/18 07:24:41;;;;;;;9.18;4.57;;;15.90;99.90;;;;;;6245454;22;20046;-84
2021/08/18 07:27:07;;;;;;;7.20;4.10;;;15.90;99.90;;;;;;6218952;22;20387;-83
2021/08/18 07:29:33;;;;;;;8.98;4.78;;;15.90;99.90;;;;;;6192429;22;20012;-83
2021/08/18 07:31:59;;;;;;;8.93;5.05;;;15.90;99.90;;;;;;6219912;22;20365;-84
2021/08/18 07:34:25;;;;;;;7.43;4.68;;;15.90;99.90;;;;;;6219388;22;20020;-84
2021/08/18 07:36:50;;;;;;;11.18;4.68;;;16.00;99.90;;;;;;6244911;22;20567;-84
2021/08/18 07:39:16;;;;;;;8.18;4.68;;;16.00;99.90;;;;;;6220595;22;20069;-85
2021/08/18 07:41:42;;;;;;;10.48;5.20;;;16.00;99.90;;;;;;6197904;22;20095;-84
2021/08/18 07:44:08;;;;;;;11.18;5.30;;;16.00;99.90;;;;;;6194515;22;20012;-84
2021/08/18 07:46:34;;;;;;;9.98;5.40;;;16.00;99.90;;;;;;6220479;22;20444;-83
2021/08/18 07:48:59;;;;;;;11.20;5.07;;;16.00;99.90;;;;;;6195289;22;20018;-84
2021/08/18 07:51:25;;;;;;;7.10;4.97;;;16.10;99.90;;;;;;6196637;22;20486;-85
2021/08/18 07:53:51;;;;;;;10.23;5.15;;;16.10;99.90;;;;;;6196548;22;20012;-84
2021/08/18 07:56:17;;;;;;;11.18;5.38;;;16.10;99.90;;;;;;6222141;22;20086;-85
2021/08/18 07:58:42;;;;;;;9.05;5.55;;;16.20;99.90;;;;;;6195961;22;20012;-82
2021/08/18 08:01:08;;;;;;;9.73;5.05;;;16.20;99.90;;;;;;6247194;22;20031;-85
2021/08/18 08:03:35;;;;;;;9.23;4.78;;;16.30;99.90;;;;;;6221853;22;20019;-85
2021/08/18 08:06:00;;;;;;;10.00;4.72;;;16.40;99.90;;;;;;6171490;22;20404;-84
2021/08/18 08:08:26;;;;;;;8.98;4.60;;;16.40;99.90;;;;;;6222577;22;20008;-84
2021/08/18 08:10:52;;;;;;;8.23;4.93;;;16.40;99.90;;;;;;6196846;22;20379;-84
2021/08/18 08:13:18;;;;;;;9.07;4.68;;;16.50;99.90;;;;;;6196192;22;20018;-85
2021/08/18 08:15:44;;;;;;;10.32;4.78;;;16.50;99.90;;;;;;6223921;22;20015;-84
2021/08/18 08:18:10;;;;;;;15.07;4.70;;;16.50;99.90;;;;;;6220841;22;20365;-86
2021/08/18 08:20:39;;;;;;;11.30;5.05;;;16.60;99.90;;;;;;6194958;22;20087;-82
2021/08/18 08:23:05;;;;;;;14.20;5.25;;;16.60;99.90;;;;;;6271847;22;20014;-85
2021/08/18 08:25:32;;;;;;;11.85;5.47;;;16.70;99.90;;;;;;6246635;22;20487;-85
2021/08/18 08:27:57;;;;;;;9.40;5.32;;;16.70;99.90;;;;;;6221974;22;20007;-85
2021/08/18 08:30:24;;;;;;;11.25;5.57;;;16.80;99.90;;;;;;6247149;22;20008;-85
2021/08/18 08:32:50;;;;;;;8.00;5.38;;;16.80;99.90;;;;;;6220524;22;20007;-85
2021/08/18 09:09:09;;;;;;;9.63;4.45;;;17.50;99.90;;;;;;6276925;22;20031;-88
2021/08/18 09:11:39;;;;;;;6.22;4.30;;;17.50;99.90;;;;;;6223039;22;20091;-87
2021/08/18 09:14:06;;;;;;;6.78;3.67;;;17.60;99.90;;;;;;6249485;22;20019;-87
2021/08/18 09:16:38;;;;;;;7.82;4.22;;;17.60;99.90;;;;;;6177343;22;20471;-86
2021/08/18 09:19:31;;;;;;;9.45;4.45;;;17.50;99.90;;;;;;6276924;22;20008;-87
2021/08/18 09:22:07;;;;;;;7.50;3.97;;;17.60;99.90;;;;;;6215894;22;20015;-87
2021/08/18 09:24:33;;;;;;;9.43;5.35;;;17.60;99.90;;;;;;6228712;22;20015;-87
2021/08/18 09:27:10;;;;;;;7.10;4.18;;;17.50;99.90;;;;;;6200168;22;20023;-89
2021/08/18 09:29:54;;;;;;;9.75;4.60;;;17.50;99.90;;;;;;6224914;22;20019;-87
2021/08/18 09:32:32;;;;;;;7.25;4.28;;;17.50;99.90;;;;;;6202329;22;20012;-86
2021/08/18 09:35:11;;;;;;;5.05;3.78;;;17.50;99.90;;;;;;6223891;22;20374;-88
2021/08/18 09:37:39;;;;;;;6.47;4.05;;;17.50;99.90;;;;;;6248882;22;20082;-89
2021/08/18 09:40:29;;;;;;;7.82;4.22;;;17.50;99.90;;;;;;6252353;22;20114;-88
2021/08/18 09:43:17;;;;;;;7.20;4.30;;;17.60;99.90;;;;;;6226336;22;20012;-87
2021/08/18 09:45:53;;;;;;;8.05;4.30;;;17.60;99.90;;;;;;6225379;22;20012;-87
2021/08/18 09:48:46;;;;;;;8.15;4.50;;;17.60;99.90;;;;;;6251396;22;20012;-86
2021/08/18 09:51:12;;;;;;;10.20;5.57;;;17.60;99.90;;;;;;6176801;22;20012;-86
2021/08/18 09:53:44;;;;;;;10.18;4.70;;;17.70;99.90;;;;;;6224257;22;20019;-88
2021/08/18 09:56:13;;;;;;;8.77;4.65;;;17.70;99.90;;;;;;6225775;22;20029;-88
2021/08/18 09:58:49;;;;;;;6.65;4.88;;;17.80;99.90;;;;;;6223184;22;20015;-88
2021/08/18 10:01:35;;;;;;;7.40;4.93;;;17.90;99.90;;;;;;6201878;22;20018;-88
2021/08/18 10:04:01;;;;;;;9.20;4.88;;;18.00;99.90;;;;;;6249857;22;20046;-87
2021/08/18 10:06:38;;;;;;;9.98;4.97;;;18.00;99.90;;;;;;6175747;22;20015;-88
2021/08/18 10:09:04;;;;;;;11.02;4.90;;;18.10;99.90;;;;;;6173585;22;20087;-88
2021/08/18 10:11:30;;;;;;;10.07;4.85;;;18.20;99.90;;;;;;6195922;22;20093;-86
2021/08/18 10:13:56;;;;;;;6.22;4.95;;;18.20;99.90;;;;;;6196770;22;20016;-86
2021/08/18 10:16:22;;;;;;;8.05;4.85;;;18.30;99.90;;;;;;6219945;22;20081;-86
2021/08/18 10:18:50;;;;;;;14.00;5.45;;;18.30;99.90;;;;;;6247300;22;20031;-87
2021/08/18 10:21:21;;;;;;;6.95;4.95;;;18.40;99.90;;;;;;6245107;22;20438;-87
2021/08/18 10:23:58;;;;;;;10.05;5.15;;;18.40;99.80;;;;;;6246547;22;20445;-87
2021/08/18 10:26:36;;;;;;;17.52;5.82;;;18.40;99.70;;;;;;6246177;22;20463;-85
2021/08/18 10:29:16;;;;;;;6.75;4.82;;;18.50;99.70;;;;;;6222942;22;20344;-87
2021/08/18 10:31:45;;;;;;;6.35;4.72;;;18.50;99.60;;;;;;6184948;23;20009;-88
2021/08/18 10:34:26;;;;;;;7.80;5.35;;;18.50;99.50;;;;;;6183275;23;20093;-88
2021/08/18 10:36:53;;;;;;;8.95;4.90;;;18.50;99.60;;;;;;6183896;23;20012;-86
2021/08/18 10:39:19;;;;;;;5.70;4.55;;;18.50;99.50;;;;;;6184543;23;20013;-86
2021/08/18 10:42:03;;;;;;;7.47;5.20;;;18.50;99.30;;;;;;6184095;23;20396;-86
2021/08/18 10:44:46;;;;;;;6.75;5.15;;;18.50;99.50;;;;;;6184291;23;20028;-87
2021/08/18 10:47:34;;;;;;;6.90;4.57;;;18.50;99.50;;;;;;6159745;23;20013;-88
2021/08/18 10:50:38;;;;;;;9.07;5.00;;;18.50;99.40;;;;;;6207810;23;20317;-88
2021/08/18 10:53:29;;;;;;;8.63;5.35;;;18.50;99.40;;;;;;6184046;23;20013;-86
2021/08/18 10:55:59;;;;;;;8.10;4.93;;;18.60;99.40;;;;;;6212501;22;20475;-89
2021/08/18 10:58:31;;;;;;;6.78;4.90;;;18.60;99.20;;;;;;6247012;22;20015;-85
2021/08/18 11:00:57;;;;;;;5.50;4.90;;;18.60;99.10;;;;;;6220282;22;20015;-86
2021/08/18 11:03:34;;;;;;;8.05;4.90;;;18.60;98.90;;;;;;6251716;22;20015;-88
2021/08/18 11:06:06;;;;;;;8.70;5.20;;;18.60;98.70;;;;;;6226530;22;20016;-86
2021/08/18 11:08:44;;;;;;;9.32;5.07;;;18.60;98.40;;;;;;6199094;22;20469;-87
2021/08/18 11:11:14;;;;;;;7.45;5.03;;;18.60;98.50;;;;;;6220207;22;20019;-87
2021/08/18 11:13:51;;;;;;;8.65;5.07;;;18.60;98.50;;;;;;6221599;22;20011;-86
2021/08/18 11:16:26;;;;;;;9.00;5.35;;;18.70;98.40;;;;;;6246206;22;20259;-88
2021/08/18 11:18:57;;;;;;;6.38;4.97;;;18.70;98.40;;;;;;6246997;22;20016;-87
2021/08/18 11:21:25;;;;;;;8.15;5.00;;;18.70;98.30;;;;;;6219739;22;20040;-86
2021/08/18 11:24:05;;;;;;;7.68;4.72;;;18.80;97.90;;;;;;6244476;22;20026;-87
2021/08/18 11:26:33;;;;;;;7.47;4.57;;;18.80;97.70;;;;;;6222572;22;20047;-86
2021/08/18 11:29:13;;;;;;;5.78;4.47;;;18.80;97.60;;;;;;6248003;22;20086;-89
2021/08/18 11:31:51;;;;;;;6.63;4.35;;;18.90;97.70;;;;;;6258004;22;20007;-86
2021/08/18 11:34:35;;;;;;;8.75;4.18;;;19.00;97.40;;;;;;6247850;22;20018;-86
2021/08/18 11:37:16;;;;;;;5.32;4.60;;;18.90;97.20;;;;;;6219610;22;20019;-87
2021/08/18 11:39:45;;;;;;;8.30;4.55;;;19.00;97.10;;;;;;6268549;22;20072;-88
2021/08/18 11:42:20;;;;;;;7.85;4.88;;;19.00;96.90;;;;;;6219000;22;20012;-88
2021/08/18 11:44:58;;;;;;;9.63;4.82;;;18.90;96.90;;;;;;6221099;22;20525;-86
2021/08/18 11:47:38;;;;;;;8.20;5.28;;;19.00;97.00;;;;;;6255878;22;20077;-90
2021/08/18 11:50:13;;;;;;;6.32;5.28;;;19.00;97.20;;;;;;6195677;22;20008;-88
2021/08/18 11:52:39;;;;;;;6.57;4.65;;;19.00;97.20;;;;;;6195335;22;20015;-86
2021/08/18 11:55:08;;;;;;;6.15;4.32;;;19.00;96.90;;;;;;6219764;22;20068;-86
2021/08/18 11:57:34;;;;;;;9.43;5.28;;;19.00;96.60;;;;;;6221355;22;20015;-86
2021/08/18 12:00:04;;;;;;;9.07;5.25;;;19.10;96.60;;;;;;6220465;22;20016;-87
2021/08/18 12:02:38;;;;;;;9.20;5.72;;;19.20;96.60;;;;;;6247489;22;20031;-86
2021/08/18 12:05:05;;;;;;;8.77;5.70;;;19.20;96.60;;;;;;6194916;22;20011;-85
2021/08/18 12:07:33;;;;;;;6.57;5.72;;;19.30;96.70;;;;;;6244119;22;20038;-85
2021/08/18 12:10:13;;;;;;;10.88;6.20;;;19.40;96.30;;;;;;6194746;22;20055;-86
2021/08/18 12:12:39;;;;;;;9.60;5.75;;;19.40;96.20;;;;;;6245576;22;20003;-86
2021/08/18 12:15:11;;;;;;;7.32;5.07;;;19.50;96.00;;;;;;6195718;22;20043;-87
2021/08/18 12:17:42;;;;;;;8.13;5.18;;;19.50;95.80;;;;;;6221366;22;20016;-88
2021/08/18 12:20:47;;;;;;;6.43;4.38;;;19.60;95.80;;;;;;6219829;22;20030;-89
2021/08/18 12:23:25;;;;;;;5.65;3.90;;;19.70;95.80;;;;;;6202939;22;20337;-86
2021/08/18 12:25:54;;;;;;;5.15;4.20;;;19.70;95.40;;;;;;6221015;22;20015;-87
2021/08/18 12:28:20;;;;;;;6.20;3.75;;;19.80;95.00;;;;;;6218499;22;20111;-86
2021/08/18 12:31:01;;;;;;;7.47;4.22;;;19.80;94.90;;;;;;6218936;22;20039;-85
2021/08/18 12:33:31;;;;;;;5.85;4.03;;;19.80;94.90;;;;;;6219010;22;20019;-87
2021/08/18 12:36:09;;;;;;;7.78;3.58;;;19.80;94.70;;;;;;6219818;22;20003;-86
2021/08/18 12:38:36;;;;;;;5.85;3.90;;;19.70;94.40;;;;;;6246217;22;20007;-87
2021/08/18 12:41:03;;;;;;;6.75;3.85;;;19.70;94.40;;;;;;6194151;22;20015;-85
2021/08/18 12:43:32;;;;;;;5.90;3.97;;;19.60;94.10;;;;;;6220537;22;20016;-86
2021/08/18 12:45:58;;;;;;;6.15;4.35;;;19.50;94.30;;;;;;6195295;22;20012;-86
2021/08/18 12:48:24;;;;;;;8.77;3.90;;;19.50;94.40;;;;;;6194311;22;20012;-87
2021/08/18 12:50:50;;;;;;;6.10;3.92;;;19.40;94.30;;;;;;6219517;22;20498;-87
2021/08/18 12:53:20;;;;;;;5.38;4.53;;;19.40;94.30;;;;;;6220341;22;20012;-88
2021/08/18 12:55:48;;;;;;;7.28;4.88;;;19.40;94.20;;;;;;6220344;22;20369;-87
2021/08/18 12:58:18;;;;;;;6.10;4.78;;;19.40;94.30;;;;;;6221594;22;20387;-86
2021/08/18 13:00:45;;;;;;;6.55;4.85;;;19.40;94.60;;;;;;6271251;22;20019;-85
2021/08/18 13:03:14;;;;;;;6.07;4.00;;;19.40;94.50;;;;;;6219089;22;20012;-88
2021/08/18 13:05:40;;;;;;;7.30;4.50;;;19.50;94.40;;;;;;6245006;22;20015;-87
2021/08/18 13:08:08;;;;;;;6.10;4.20;;;19.60;94.40;;;;;;6246055;22;20016;-86
2021/08/18 13:10:34;;;;;;;5.30;4.43;;;19.50;94.40;;;;;;6243130;22;20011;-85
2021/08/18 13:13:01;;;;;;;6.80;5.18;;;19.60;94.40;;;;;;6243778;22;20034;-87
2021/08/18 13:15:36;;;;;;;7.53;4.97;;;19.60;94.30;;;;;;6219644;22;20088;-86
2021/08/18 13:18:02;;;;;;;7.63;5.53;;;19.60;94.40;;;;;;6220231;22;20016;-86
2021/08/18 13:20:28;;;;;;;6.47;5.13;;;19.70;94.50;;;;;;6219048;22;20008;-86
2021/08/18 13:22:54;;;;;;;6.50;5.43;;;19.70;94.60;;;;;;6244839;22;20034;-87
2021/08/18 13:25:20;;;;;;;9.20;5.55;;;19.70;94.60;;;;;;6219679;22;20011;-85
2021/08/18 13:27:46;;;;;;;6.70;6.00;;;19.80;94.60;;;;;;6220119;22;20012;-88
2021/08/18 13:30:15;;;;;;;10.18;6.03;;;19.80;94.60;;;;;;6169211;22;20352;-88
2021/08/18 13:32:47;;;;;;;7.82;5.53;;;19.80;94.80;;;;;;6197362;22;20444;-87
2021/08/18 13:35:12;;;;;;;8.23;5.82;;;19.90;94.60;;;;;;6220299;22;20047;-86
2021/08/18 13:37:46;;;;;;;6.35;4.50;;;19.90;94.10;;;;;;6170659;22;20015;-87
2021/08/18 13:40:16;;;;;;;5.72;4.28;;;19.90;93.50;;;;;;6194057;22;20015;-87
2021/08/18 13:42:42;;;;;;;7.22;4.88;;;19.80;93.00;;;;;;6194463;22;20020;-86